PFKW

Details ICAO PFKW (KWT)
Name Kwethluk
Region USA (Alaska)
Timezone America/Anchorage (UTC-8.0)
Plans Departing 0
Arriving 0
Stats Elevation 28 ft / 9 m (AMSL)
Location 60.804252° -161.445350°
Runways 1
Magnetic Variation 11.527° E
Sunrise 2018-05-27 13:36:16 UTC / 2018-05-27 05:36:16 Local
Sunset 2018-05-28 07:52:35 UTC / 2018-05-27 23:52:35 Local
Advertisement - Login to hide

Runways

ID Width Length Bearing (true) Bearing (mag) Surface Threshold Offset Overrun Length
06 30 ft / 9 m 1,752 ft / 534 m 79.00° 67.47° Gravel 0 ft / 0 m 0 ft / 0 m
24 30 ft / 9 m 1,752 ft / 534 m 259.00° 247.47° Gravel 0 ft / 0 m 0 ft / 0 m

Map

Weather


0- 5 10 15 20 25 30 35+ Temperature / ° C

Clouds and Precipitation
Forecast for 2018-05-28 00:00 UTC. Updated 3 hours ago

Ground ~20,000 ft ~40,000 ft Winds

METAR

PFKW 280156Z AUTO 32009KT 10SM OVC031 07/M01 A3000 RMK AO2 RAE24 SLP157 P0000 T00671006

TAF

Not found
Warning: Do not use this data for real-world aviation or navigation. No guarantee of current accuracy is given.